Home > Products > Valid Products > TAF

000
FTUS45 KPIH 221400 AAD
TAFBYI
TAF AMD
KBYI 221449Z 2215/2312 26011G20KT P6SM VCSH SCT006 OVC015
      TEMPO 2215/2218 OVC005
     FM221900 26021G31KT P6SM SCT015 BKN080
     FM230300 25010KT P6SM SCT080=



000
FTUS45 KPIH 221300 AAC
TAFBYI
TAF AMD
KBYI 221332Z 2214/2312 26011G20KT P6SM VCSH SCT006 OVC015
      TEMPO 2214/2217 BKN004 OVC013
     FM221900 26021G31KT P6SM SCT015 BKN080
     FM230300 25010KT P6SM SCT080=



000
FTUS45 KPIH 221200 AAB
TAFBYI
TAF AMD
KBYI 221244Z 2213/2312 26011G20KT P6SM VCSH SCT006 OVC015
      TEMPO 2213/2217 BKN007 OVC013
     FM221900 26021G31KT P6SM SCT015 BKN080
     FM230300 25010KT P6SM SCT080=



000
FTUS45 KPIH 221100 AAA
TAFBYI
TAF AMD
KBYI 221143Z 2212/2312 26011G20KT P6SM VCSH SCT006 OVC015
      TEMPO 2212/2216 SCT006 BKN009
     FM221800 26021G31KT P6SM SCT015 BKN080
     FM230300 25010KT P6SM SCT080=



000
FTUS45 KPIH 221100 AAA
TAFIDA
TAF AMD
KIDA 221125Z 2211/2312 20014G24KT P6SM SCT008 OVC120
      TEMPO 2212/2216 BKN008 OVC080
     FM222000 26012G22KT P6SM SCT015 BKN080
     FM230300 26010KT P6SM SCT080
     FM230900 VRB05KT 6SM BR SCT008=



000
FTUS45 KPIH 221100
TAFSUN
TAF
KSUN 221120Z 2212/2312 32007KT P6SM VCSH SCT020 BKN040
     FM221800 VRB06KT P6SM SCT050
     FM230300 32010KT P6SM SCT050 SCT120
      AMD LTD TO CLD VIS AND WIND TIL 221400=



000
FTUS45 KPIH 221100
TAFIDA
TAF
KIDA 221120Z 2212/2312 20014G24KT P6SM SCT008 OVC120
     FM222000 26012G22KT P6SM SCT015 BKN080
     FM230300 26010KT P6SM SCT080
     FM230900 VRB05KT 6SM BR SCT008=



000
FTUS45 KPIH 221100
TAFBYI
TAF
KBYI 221120Z 2212/2312 26011G20KT P6SM VCSH SCT006 OVC015
     FM221800 26021G31KT P6SM SCT015 BKN080
     FM230300 25010KT P6SM SCT080=



000
FTUS45 KPIH 221100
TAFPIH
TAF
KPIH 221120Z 2212/2312 24015G25KT P6SM VCSH BKN007 OVC015
     FM222000 26018G28KT P6SM SCT015 BKN080
     FM230300 23011KT P6SM SCT080
     FM230900 21005KT P6SM SCT080=



000
FTUS45 KPIH 220900 AAA
TAFBYI
TAF AMD
KBYI 220905Z 2209/2306 25015G25KT P6SM SCT020 SCT100
      TEMPO 2210/2213 SCT007 BKN015
     FM221600 26020G30KT P6SM SCT020
     FM230100 25010KT P6SM SCT010=



000
FTUS45 KPIH 220900 AAB
TAFIDA
TAF AMD
KIDA 220902Z 2209/2306 20010KT 6SM BR SCT004 OVC007
     FM222000 24010KT P6SM SCT010
     FM230200 VRB06KT P6SM SCT005 BKN010=



000
FTUS45 KPIH 220800 AAA
TAFPIH
TAF AMD
KPIH 220821Z 2208/2306 23015G25KT P6SM VCSH SCT004 OVC009
     FM222000 26015G25KT P6SM SCT020
     FM230200 VRB06KT P6SM SCT010=



000
FTUS45 KPIH 220800 AAA
TAFPIH
TAF AMD
KPIH 220821Z 2208/2306 23015G25KT P6SM VCSH SCT004 OVC009
     FM222000 26015G25KT P6SM SCT020
     FM230200 VRB06KT P6SM SCT010=



000
FTUS45 KPIH 220800 AAA
TAFIDA
TAF AMD
KIDA 220806Z 2208/2306 20010KT P6SM SCT100
     FM221200 20008KT 6SM BR SCT004 BKN010
     FM222000 24010KT P6SM SCT010
     FM230200 VRB06KT P6SM SCT005 BKN010=



000
FTUS45 KPIH 220800 AAA
TAFIDA
TAF AMD
KIDA 220806Z 2208/2306 20010KT P6SM SCT100
     FM221200 20008KT 6SM BR SCT004 BKN010
     FM222000 24010KT P6SM SCT010
     FM230200 VRB06KT P6SM SCT005 BKN010=



000
FTUS45 KPIH 220500
TAFIDA
TAF
KIDA 220520Z 2206/2306 13007KT P6SM SCT100
     FM220800 20008KT 6SM BR SCT004 BKN010
     FM222000 24010KT P6SM SCT010
     FM230200 VRB06KT P6SM SCT005 BKN010=



000
FTUS45 KPIH 220500
TAFPIH
TAF
KPIH 220520Z 2206/2306 23015G25KT P6SM VCSH SCT004 OVC010
     FM222000 26015G25KT P6SM SCT020
     FM230200 VRB06KT P6SM SCT010=



000
FTUS45 KPIH 220500
TAFBYI
TAF
KBYI 220520Z 2206/2306 25015G25KT P6SM VCSH SCT010 BKN020
     FM221600 26020G30KT P6SM SCT020
     FM230100 25010KT P6SM SCT010=



000
FTUS45 KPIH 220500
TAFSUN
TAF
KSUN 220520Z 2206/2306 30007KT P6SM VCSH SCT020 BKN120
     FM221700 VRB06KT P6SM SCT060
     FM230300 32010KT P6SM FEW060
      AMD LTD TO CLD VIS AND WIND TIL 221400=



000
FTUS45 KPIH 220400 AAA
TAFPIH
TAF AMD
KPIH 220425Z 2204/2224 23019KT P6SM VCSH BKN015 OVC025
     FM220600 21015KT P6SM VCSH SCT004 OVC015
     FM222000 26015G25KT P6SM SCT020=



000
FTUS45 KPIH 220400 AAA
TAFBYI
TAF AMD
KBYI 220425Z 2204/2224 25020G30KT P6SM VCSH BKN040
     FM220600 25014KT P6SM VCSH SCT005 BKN015
     FM221600 26020G30KT P6SM SCT020=



000
FTUS45 KPIH 212300
TAFPIH
TAF
KPIH 212322Z 2200/2224 25020G30KT P6SM VCSH BKN020
     FM220200 20019KT P6SM VCSH BKN015 OVC025
     FM220600 21015KT P6SM VCSH SCT004 OVC015
     FM222000 26015G25KT P6SM SCT020=



000
FTUS45 KPIH 212300
TAFSUN
TAF
KSUN 212322Z 2200/2224 32010KT P6SM VCSH FEW020 BKN050
     FM220200 30007KT P6SM VCSH SCT020 BKN050
     FM221200 32008KT P6SM SCT040 BKN100
     FM221700 VRB06KT P6SM SCT060
      AMD LTD TO CLD VIS AND WIND 2206/2214=



000
FTUS45 KPIH 212300
TAFIDA
TAF
KIDA 212322Z 2200/2224 25011KT P6SM VCSH SCT005 BKN070
     FM220300 21011KT P6SM VCSH SCT015 OVC025
     FM220600 21010KT 6SM BR VCSH SCT006 OVC012
      TEMPO 2211/2215 VRB03KT 1SM BR BKN004
     FM222000 24010KT P6SM SCT020=



000
FTUS45 KPIH 212300
TAFBYI
TAF
KBYI 212322Z 2200/2224 26015G25KT P6SM VCSH SCT040 BKN060
     FM220200 25015KT P6SM VCSH BKN040
     FM220600 25014KT P6SM VCSH SCT005 BKN015
     FM221600 26020G30KT P6SM SCT020=



000
FTUS45 KPIH 212300 AAB
TAFIDA
TAF AMD
KIDA 212301Z 2123/2218 25011KT P6SM VCSH SCT005 BKN070
     FM220200 22015KT P6SM VCSH SCT015 OVC025
     FM220600 24008KT 6SM BR SCT006 OVC012
      TEMPO 2208/2212 VRB03KT 1SM BR BKN004=



000
FTUS45 KPIH 212300 AAB
TAFSUN
TAF AMD
KSUN 212300Z 2123/2218 32010KT P6SM VCSH FEW010 BKN050
     FM220200 30007KT P6SM VCSH SCT020 BKN050
     FM220700 32008KT P6SM SCT040 BKN100=



000
FTUS45 KPIH 212100 AAA
TAFPIH
TAF AMD
KPIH 212120Z 2121/2218 25025G35KT P6SM VCSH BKN020 OVC030
     FM220200 20020G30KT P6SM VCSH BKN015 OVC025
     FM220600 22014KT P6SM SCT009 OVC015
     FM221700 24020KT P6SM SCT020=



000
FTUS45 KPIH 211900 AAA
TAFIDA
TAF AMD
KIDA 211917Z 2119/2218 24025G35KT P6SM VCSH SCT005 BKN070
     FM220200 22015KT P6SM VCSH SCT015 OVC025
     FM220600 24008KT 6SM BR SCT006 OVC012
      TEMPO 2208/2212 VRB03KT 1SM BR BKN004=



000
FTUS45 KPIH 211900 AAA
TAFIDA
TAF AMD
KIDA 211917Z 2119/2218 24025G35KT P6SM VCSH SCT005 BKN070
     FM220200 22015KT P6SM VCSH SCT015 OVC025
     FM220600 24008KT 6SM BR SCT006 OVC012
      TEMPO 2208/2212 VRB03KT 1SM BR BKN004=



000
FTUS45 KPIH 211800 AAA
TAFSUN
TAF AMD
KSUN 211800Z 2118/2218 30004KT 5SM BR VCSH SCT010 BKN030 OVC040
     FM211900 28015KT P6SM VCSH FEW010 OVC045
     FM220200 30007KT P6SM VCSH SCT020 BKN050
     FM220700 32008KT P6SM SCT040 BKN100=



000
FTUS45 KPIH 211700
TAFPIH
TAF
KPIH 211739Z 2118/2218 23025G35KT P6SM VCSH SCT010 OVC015
     FM220200 20020G30KT P6SM VCSH BKN015 OVC025
     FM220600 22014KT P6SM SCT009 OVC015
     FM221700 24020KT P6SM SCT020=



000
FTUS45 KPIH 211700
TAFSUN
TAF
KSUN 211739Z 2118/2218 VRB03KT 3SM -SHRASN BKN008 OVC015
     FM212000 27010KT 6SM -SHRA BR SCT008 BKN015 OVC035
     FM220200 30007KT P6SM VCSH SCT020 BKN040
     FM220700 32008KT P6SM SCT040 BKN100=



000
FTUS45 KPIH 211700
TAFBYI
TAF
KBYI 211739Z 2118/2218 26025G35KT P6SM VCSH FEW025 OVC035
     FM220200 25017KT P6SM VCSH BKN040
     FM220600 25014KT P6SM VCSH SCT005 BKN015
     FM221600 26020KT P6SM SCT020=



000
FTUS45 KPIH 211700
TAFIDA
TAF
KIDA 211739Z 2118/2218 24025G35KT P6SM VCSH BKN007 OVC015
     FM220200 22015KT P6SM VCSH BKN015 OVC025
     FM220600 24008KT 6SM BR SCT006 OVC012
      TEMPO 2208/2212 VRB03KT 1SM BR BKN004=



000
FTUS45 KPIH 211600 AAA
TAFPIH
TAF AMD
KPIH 211625Z 2116/2212 23025G35KT P6SM VCSH SCT010 OVC015
     FM220200 20020G30KT P6SM VCSH BKN015 OVC025
     FM220600 22014KT P6SM OVC015
      TEMPO 2208/2212 4SM BR OVC008=



000
FTUS45 KPIH 211600 AAA
TAFIDA
TAF AMD
KIDA 211623Z 2116/2212 23015G25KT P6SM VCSH OVC008
     FM211700 24025G35KT P6SM VCSH SCT009 OVC015
     FM220200 22015KT P6SM VCSH BKN015 OVC025
     FM220600 24008KT P6SM OVC015=



000
FTUS45 KPIH 211600 AAA
TAFBYI
TAF AMD
KBYI 211622Z 2116/2212 26025G35KT P6SM VCSH FEW025 OVC035
     FM220200 25017KT P6SM VCSH BKN040
     FM220600 25014KT P6SM VCSH SCT005 BKN015=



000
FTUS45 KPIH 211600 AAA
TAFSUN
TAF AMD
KSUN 211619Z 2116/2212 VRB03KT 1SM -SN BR OVC004
     FM211700 31007KT 6SM -SHRASN BKN008 OVC015
     FM212000 24010KT 6SM -SHRA BR SCT008 BKN015 OVC035
     FM220200 30007KT P6SM VCSH SCT020 BKN040
     FM220700 32008KT P6SM SCT040 BKN100=



000
FTUS45 KPIH 211100
TAFSUN
TAF
KSUN 211120Z 2112/2212 VRB06KT 1SM -SN BR OVC008
     FM211500 31007KT 4SM -SHRASN BR SCT008 OVC015
     FM212000 24010KT 6SM -SHRA BR SCT008 OVC015
     FM220200 30007KT P6SM VCSH SCT020 BKN040
     FM220700 32008KT P6SM SCT040 BKN100
      AMD LTD TO CLD VIS AND WIND TIL 211400=



000
FTUS45 KPIH 211100
TAFBYI
TAF
KBYI 211120Z 2112/2212 22015G20KT P6SM -RA OVC025
     FM211500 26025G35KT P6SM VCSH SCT015 OVC025
     FM220200 25017KT P6SM VCSH SCT020 OVC035
     FM220600 25014KT P6SM VCSH SCT005 BKN015=



000
FTUS45 KPIH 211100
TAFIDA
TAF
KIDA 211120Z 2112/2212 20015G25KT P6SM VCSH OVC005
      TEMPO 2112/2116 3SM BR
     FM211700 22025G35KT P6SM VCSH SCT007 OVC015
     FM220200 22015KT P6SM VCSH BKN015 OVC025
     FM220600 24008KT P6SM OVC015=



000
FTUS45 KPIH 211100
TAFPIH
TAF
KPIH 211120Z 2112/2212 20015G25KT P6SM -RA BKN018
     FM211700 23025G35KT P6SM VCSH SCT008 OVC015
     FM220200 20020G30KT P6SM VCSH BKN015 OVC025
     FM220600 22014KT P6SM OVC015
      TEMPO 2208/2212 4SM BR OVC008=



000
FTUS45 KPIH 211000 AAA
TAFPIH
TAF AMD
KPIH 211012Z 2110/2206 20015KT P6SM -RA BKN018
      TEMPO 2110/2114 4SM -RA BKN010
     FM211700 23030G40KT P6SM VCSH SCT008 OVC015
     FM220200 20020G30KT P6SM VCSH BKN015 OVC025=



000
FTUS45 KPIH 211000 AAA
TAFPIH
TAF AMD
KPIH 211012Z 2110/2206 20015KT P6SM -RA BKN018
      TEMPO 2110/2114 4SM -RA BKN010
     FM211700 23030G40KT P6SM VCSH SCT008 OVC015
     FM220200 20020G30KT P6SM VCSH BKN015 OVC025=



000
FTUS45 KPIH 210900 AAA
TAFBYI
TAF AMD
KBYI 210931Z 2110/2206 21008KT P6SM -RA SCT010 OVC030
      TEMPO 2110/2114 3SM -RA BR SCT007 OVC010
     FM211500 26025G35KT P6SM VCSH SCT015 OVC025
     FM220200 25017KT P6SM VCSH SCT020 OVC035=



000
FTUS45 KPIH 210500
TAFBYI
TAF
KBYI 210527Z 2106/2206 25008KT 6SM -RA BR SCT010 OVC025
      TEMPO 2108/2112 2SM -RA BR SCT007 OVC010
     FM211500 26025G35KT P6SM VCSH SCT015 OVC025
     FM220200 25017KT P6SM VCSH SCT020 OVC035=



000
FTUS45 KPIH 210500
TAFSUN
TAF
KSUN 210527Z 2106/2206 VRB06KT 1SM -SN BR BKN003 OVC010
     FM211500 31007KT 6SM -SHRASN BR SCT008 OVC015
     FM212000 15006KT 4SM -SHRA BR SCT004 BKN008
     FM220200 30007KT P6SM VCSH SCT020 BKN040
      AMD LTD TO CLD VIS AND WIND TIL 211400=



000
FTUS45 KPIH 210500
TAFIDA
TAF
KIDA 210527Z 2106/2206 20015KT 6SM -RASN BR BKN007 OVC010
      TEMPO 2109/2113 2SM -SN BR BKN004
     FM211700 22020G30KT P6SM VCSH SCT007 OVC015
     FM220200 22015KT P6SM VCSH BKN015 OVC025=



000
FTUS45 KPIH 210500
TAFPIH
TAF
KPIH 210527Z 2106/2206 20015KT 6SM -RA BR BKN010 OVC020
      TEMPO 2109/2113 2SM -RA BR SCT004 BKN008
     FM211700 23030G40KT P6SM VCSH SCT008 OVC015
     FM220200 20020G30KT P6SM VCSH BKN015 OVC025=



000
FTUS45 KPIH 210200 AAC
TAFSUN
TAF AMD
KSUN 210300Z 2103/2124 VRB06KT 1SM -SN BR BKN003 OVC009
     FM211500 31007KT 6SM -SHRASN BR SCT008 OVC015
     FM212000 15006KT 4SM -SHRA BR SCT004 BKN008
      AMD LTD TO CLD VIS AND WIND 2106/2114=



000
FTUS45 KPIH 210200 CCA
TAFSUN
TAF COR
KSUN 210211Z 2102/2124 VRB06KT 2SM -SN BR SCT005 OVC018
     FM210400 VRB06KT 1SM -SN BR OVC008
     FM211500 31007KT 6SM -SHRASN BR SCT008 OVC015
     FM212000 15006KT 4SM -SHRA BR SCT004 BKN008
      AMD LTD TO CLD VIS AND WIND 2106/2114=



000
FTUS45 KPIH 210100 AAB
TAFSUN
TAF AMD
KSUN 210158Z 2102/2124 VRB06KT 2SM -SN BR SCT005 OVC018
     FM211500 31007KT 6SM -SHRASN BR SCT008 OVC015
     FM212000 15006KT 4SM -SHRA BR SCT004 BKN008
      AMD LTD TO CLD VIS AND WIND 2106/2114=



000
FTUS45 KPIH 210000 AAA
TAFIDA
TAF AMD
KIDA 210052Z 2101/2124 20011KT 6SM -RASN BR SCT005 OVC015
     FM210600 20015KT 5SM -RASN BR BKN004 OVC008
      TEMPO 2109/2113 2SM -SN BR OVC004
     FM211700 22020G30KT P6SM VCSH BKN008 OVC015=



000
FTUS45 KPIH 210000 AAA
TAFBYI
TAF AMD
KBYI 210051Z 2101/2124 21011KT P6SM -RA BKN025 OVC035
     FM210500 21014KT 5SM -RA BR SCT007 OVC015
     FM211500 26025G35KT P6SM VCSH SCT015 OVC025=



000
FTUS45 KPIH 202300 AAA
TAFSUN
TAF AMD
KSUN 202354Z 2100/2124 15007KT P6SM VCSH SCT005 SCT015 OVC020
      TEMPO 2100/2104 4SM BR BKN003 BKN015
     FM210400 VRB06KT 1SM -SN BR OVC008
     FM211500 31007KT 6SM -SHRASN BR SCT008 OVC015
     FM212000 15006KT 4SM -SHRA BR SCT004 BKN008
      AMD LTD TO CLD VIS AND WIND 2106/2114=



000
FTUS45 KPIH 202300
TAFBYI
TAF
KBYI 202335Z 2100/2124 21011KT P6SM -RA SCT030 OVC040
     FM210500 21014KT 5SM -RA BR SCT007 OVC015
     FM211500 26025G35KT P6SM VCSH SCT015 OVC025=



000
FTUS45 KPIH 202300
TAFSUN
TAF
KSUN 202335Z 2100/2124 15007KT P6SM VCSH SCT005 SCT015 OVC020
      TEMPO 2100/2104 6SM BR BKN005 OVC020
     FM210400 VRB06KT 1SM -SN BR OVC008
     FM211500 31007KT 6SM -SHRASN BR SCT008 OVC015
     FM212000 15006KT 4SM -SHRA BR SCT004 BKN008
      AMD LTD TO CLD VIS AND WIND 2106/2114=



000
FTUS45 KPIH 202300
TAFIDA
TAF
KIDA 202335Z 2100/2124 20011KT 6SM -RASN BR SCT005 OVC020
     FM210600 20015KT 5SM -RASN BR BKN004 OVC008
      TEMPO 2109/2113 2SM -SN BR OVC004
     FM211700 22020G30KT P6SM VCSH BKN008 OVC015=



000
FTUS45 KPIH 202300
TAFPIH
TAF
KPIH 202335Z 2100/2124 19015KT P6SM -SHRA SCT015 OVC025
     FM210600 20015KT 5SM -RA BR SCT008 BKN015
      TEMPO 2109/2113 2SM -RA BR SCT004 BKN008
     FM211700 23030G40KT P6SM VCSH SCT015 BKN025=



000
FTUS45 KPIH 202300 AAA
TAFPIH
TAF AMD
KPIH 202310Z 2023/2118 20011KT P6SM -SHRA SCT015 OVC025
     FM210600 20015KT 5SM -RA SCT008 BKN015 OVC025
      TEMPO 2107/2111 5SM -RA SCT004 BKN008 OVC015
     FM211700 23020G30KT P6SM VCSH SCT015 BKN025 OVC035=



000
FTUS45 KPIH 202300 AAA
TAFIDA
TAF AMD
KIDA 202302Z 2023/2118 20011KT 6SM -RASN SCT005 OVC020
     FM210600 20015KT 3SM -RASN BKN004 OVC008
     FM211700 22015G25KT P6SM VCSH SCT004 BKN009 OVC015=



000
FTUS45 KPIH 202300 AAA
TAFBYI
TAF AMD
KBYI 202302Z 2023/2118 21011KT P6SM -RA SCT030 OVC040
     FM210600 24014KT 5SM -RA BR OVC008
     FM211600 26025G35KT P6SM VCSH SCT015 BKN025 OVC035=



000
FTUS45 KPIH 202300 AAB
TAFSUN
TAF AMD
KSUN 202301Z 2023/2118 15007KT P6SM VCSH SCT005 SCT015 OVC020
      TEMPO 2023/2103 6SM BR BKN005 OVC020
     FM210400 VRB06KT 1SM -SN BR OVC008
     FM211500 30011KT 4SM -SNRA SCT009 BKN012 OVC020=



000
FTUS45 KPIH 202100 AAA
TAFSUN
TAF AMD
KSUN 202101Z 2021/2118 15007KT P6SM VCSH FEW008 SCT015 OVC035
      TEMPO 2021/2022 VRB03KT 4SM BR SCT015 OVC035
     FM210400 VRB06KT 1SM -SN BR OVC008
     FM211500 30011KT 4SM -SNRA SCT009 BKN012 OVC020=



000
FTUS45 KPIH 201700
TAFPIH
TAF
KPIH 201740Z 2018/2118 19011KT P6SM VCSH SCT025 BKN035 OVC045
     FM202000 20011KT P6SM VCSH SCT015 BKN025 OVC035
     FM210600 20015KT 5SM -RA SCT008 BKN015 OVC025
      TEMPO 2107/2111 5SM -RA SCT004 BKN008 OVC015
     FM211700 23020G30KT P6SM VCSH SCT015 BKN025 OVC035=



000
FTUS45 KPIH 201700
TAFSUN
TAF
KSUN 201740Z 2018/2118 30004KT 1SM -SN BR OVC009
      TEMPO 2018/2021 VRB06KT 4SM -SN SCT009 OVC012
     FM202100 15007KT 4SM -SNRA BR SCT010 BKN015 OVC020
     FM210400 VRB06KT 1SM -SN BR OVC008
     FM211500 30011KT 4SM -SNRA SCT009 BKN012 OVC020=



000
FTUS45 KPIH 201700
TAFIDA
TAF
KIDA 201740Z 2018/2118 21008KT 1SM -SN BR BKN003 OVC009
     FM202000 20011KT 6SM -RASN SCT005 BKN009 OVC015
     FM210600 20015KT 3SM -RASN BKN004 OVC008
     FM211700 22015G25KT P6SM VCSH SCT004 BKN009 OVC015=



000
FTUS45 KPIH 201700
TAFBYI
TAF
KBYI 201740Z 2018/2118 24010KT P6SM -RA SCT015 BKN025 OVC060
     FM202300 25012KT P6SM -RA SCT008 OVC025
     FM210600 24014KT 5SM -RA BR OVC008
     FM211600 26025G35KT P6SM VCSH SCT015 BKN025 OVC035=



000
FTUS45 KPIH 201700 AAB
TAFSUN
TAF AMD
KSUN 201711Z 2017/2112 30004KT 1SM -SN BR OVC010
      TEMPO 2017/2021 VRB06KT 4SM -SN SCT009 OVC015
     FM202100 15007KT 4SM -SNRA BR SCT010 BKN015 OVC020
     FM210400 VRB03KT 1SM -SN BR OVC008=



000
FTUS45 KPIH 201600 AAA
TAFPIH
TAF AMD
KPIH 201601Z 2016/2112 19006KT P6SM VCSH BKN025 OVC040
     FM201800 22010KT P6SM VCSH SCT008 OVC015
     FM210800 20014KT 5SM -RA SCT008 OVC015=



000
FTUS45 KPIH 201300 AAA
TAFSUN
TAF AMD
KSUN 201356Z 2014/2112 VRB03KT P6SM VCSH SCT015 BKN035
      TEMPO 2014/2018 4SM -SN BKN015
     FM201800 VRB03KT 4SM -SN SCT005 BKN015
     FM202200 15007KT 2SM -SNRA BR OVC008
     FM210500 VRB03KT 2SM -SN BR OVC008
      AMD LTD TO CLD VIS AND WIND TIL 201400=



000
FTUS45 KPIH 201300 AAA
TAFIDA
TAF AMD
KIDA 201318Z 2013/2112 23008KT P6SM SCT005 OVC015
      TEMPO 2013/2016 BKN005
     FM202100 22011KT P6SM VCSH BKN005 OVC015
     FM210200 21012KT 4SM -RASN BR OVC005
     FM210800 21015KT 3SM -SN BR OVC005=



000
FTUS45 KPIH 201100
TAFBYI
TAF
KBYI 201120Z 2012/2112 21008KT P6SM BKN030 OVC080
     FM201600 22010KT P6SM VCSH BKN025 OVC060
     FM202300 25012KT P6SM -RA SCT008 OVC025
     FM210600 24014KT 5SM -RA BR OVC008=



000
FTUS45 KPIH 201100
TAFIDA
TAF
KIDA 201120Z 2012/2112 23008KT P6SM BKN005 OVC015
     FM202100 22011KT P6SM VCSH BKN005 OVC015
     FM210200 21012KT 4SM -RASN BR OVC005
     FM210800 21015KT 3SM -SN BR OVC005=



000
FTUS45 KPIH 201100
TAFPIH
TAF
KPIH 201120Z 2012/2112 20010KT P6SM VCSH SCT020 BKN060
     FM201800 22010KT P6SM VCSH SCT008 OVC015
     FM210800 20014KT 5SM -RA SCT008 OVC015=



000
FTUS45 KPIH 201100
TAFSUN
TAF
KSUN 201120Z 2012/2112 VRB04KT P6SM SCT020 SCT070
     FM201500 VRB03KT P6SM VCSH SCT005 BKN015
     FM201800 VRB03KT 4SM -SN SCT005 BKN015
     FM202200 15007KT 2SM -SNRA BR OVC008
     FM210500 VRB03KT 2SM -SN BR OVC008
      AMD LTD TO CLD VIS AND WIND TIL 201400=



000
FTUS45 KPIH 201000 AAA
TAFBYI
TAF AMD
KBYI 201033Z 2011/2106 21008KT P6SM BKN030 OVC080
     FM201500 19010KT P6SM BKN025 OVC060
     FM202100 25015KT P6SM -RA SCT008 OVC025=



000
FTUS45 KPIH 201000 AAB
TAFIDA
TAF AMD
KIDA 201032Z 2011/2106 23008KT P6SM SCT005 OVC015
      TEMPO 2011/2015 OVC007
     FM201800 22015KT 6SM -RA BR OVC008
     FM210200 20008KT 4SM -RA BR OVC002=



000
FTUS45 KPIH 201000 AAA
TAFPIH
TAF AMD
KPIH 201031Z 2011/2106 20010KT P6SM VCSH SCT020 BKN040
     FM202000 22010KT P6SM -RA SCT008 OVC015=



000
FTUS45 KPIH 200700 AAB
TAFSUN
TAF AMD
KSUN 200750Z 2008/2106 VRB04KT P6SM SCT020 SCT070
     FM201100 VRB03KT P6SM VCSH SCT005 BKN015
     FM201500 VRB03KT 4SM -SN SCT005 BKN015
     FM202000 15007KT 2SM -RA BR OVC008
      AMD LTD TO CLD VIS AND WIND TIL 201400=



000
FTUS45 KPIH 200700 AAB
TAFSUN
TAF AMD
KSUN 200750Z 2008/2106 VRB04KT P6SM SCT020 SCT070
     FM201100 VRB03KT P6SM VCSH SCT005 BKN015
     FM201500 VRB03KT 4SM -SN SCT005 BKN015
     FM202000 15007KT 2SM -RA BR OVC008
      AMD LTD TO CLD VIS AND WIND TIL 201400=



000
FTUS45 KPIH 200700 AAA
TAFSUN
TAF AMD
KSUN 200701Z 2007/2106 VRB04KT P6SM SCT003 SCT020 BKN070
      TEMPO 2007/2011 3SM BR OVC003
     FM201200 VRB03KT 2SM BR OVC004
     FM202000 15007KT 2SM -RA BR OVC008
      AMD LTD TO CLD VIS AND WIND TIL 201400=



000
FTUS45 KPIH 200600 AAA
TAFIDA
TAF AMD
KIDA 200648Z 2007/2106 23008KT P6SM SCT005 OVC015
      TEMPO 2007/2011 4SM BR OVC005
     FM201100 22008KT 2SM BR OVC002
     FM201800 22015KT 6SM -RA BR OVC008
     FM210200 20008KT 4SM -RA BR OVC002=



000
FTUS45 KPIH 200500
TAFIDA
TAF
KIDA 200520Z 2006/2106 21008KT 4SM -SN BR BKN004 OVC015
      TEMPO 2006/2010 1SM -SN VV004
     FM201000 22008KT 4SM BR OVC002
     FM201300 22008KT 2SM BR OVC002
     FM201800 22015KT 6SM -RA BR OVC008
     FM210200 20008KT 4SM -RA BR OVC002=



000
FTUS45 KPIH 200500
TAFSUN
TAF
KSUN 200520Z 2006/2106 VRB04KT 1/2SM FZFG VV004
     FM201200 VRB03KT 2SM BR OVC004
     FM202000 15007KT 2SM -RA BR OVC008
      AMD LTD TO CLD VIS AND WIND TIL 201400=



000
FTUS45 KPIH 200500
TAFBYI
TAF
KBYI 200520Z 2006/2106 22007KT P6SM SCT025 OVC040
      TEMPO 2006/2009 BKN025 OVC040
     FM200900 22007KT 6SM BR BKN015 BKN070
     FM201500 19010KT P6SM BKN025 OVC060
     FM202100 25015KT P6SM -RA SCT008 OVC025=



000
FTUS45 KPIH 200500
TAFPIH
TAF
KPIH 200520Z 2006/2106 19008KT P6SM VCSH BKN025 OVC090
      TEMPO 2006/2008 4SM -SN BR SCT008 OVC015
     FM200800 18008KT P6SM -RASN BKN008 OVC015
     FM201300 18008KT 4SM BR OVC004
     FM202000 22010KT P6SM -RA SCT008 OVC015=



000
FTUS45 KPIH 200300 AAB
TAFIDA
TAF AMD
KIDA 200345Z 2004/2024 21015KT 4SM -SN BR BKN004 OVC015
     FM201300 21007KT 1SM BR OVC008
     FM201800 20007KT 2SM BR OVC015=



000
FTUS45 KPIH 200300 AAB
TAFIDA
TAF AMD
KIDA 200345Z 2004/2024 21015KT 4SM -SN BR BKN004 OVC015
     FM201300 21007KT 1SM BR OVC008
     FM201800 20007KT 2SM BR OVC015=



000
FTUS45 KPIH 200300 AAB
TAFPIH
TAF AMD
KPIH 200300Z 2003/2024 25015KT P6SM VCSH BKN025 OVC090
     FM200800 22008KT P6SM -RASN BKN008 OVC015
     FM201300 18008KT P6SM SCT008 OVC015
     FM201800 21010KT P6SM SCT025 BKN050 OVC080=



000
FTUS45 KPIH 200100 AAA
TAFIDA
TAF AMD
KIDA 200159Z 2002/2024 21015KT 4SM -RASN BR SCT008 OVC025
      TEMPO 2002/2004 BKN008 OVC025
     FM200900 23010KT 4SM BR SCT008 OVC025
     FM201300 21007KT 1SM BR OVC008
     FM201800 20007KT 2SM BR OVC015=



000
FTUS45 KPIH 200100 AAA
TAFIDA
TAF AMD
KIDA 200159Z 2002/2024 21015KT 4SM -RASN BR SCT008 OVC025
      TEMPO 2002/2004 BKN008 OVC025
     FM200900 23010KT 4SM BR SCT008 OVC025
     FM201300 21007KT 1SM BR OVC008
     FM201800 20007KT 2SM BR OVC015=



000
FTUS45 KPIH 200000 AAA
TAFPIH
TAF AMD
KPIH 200021Z 2000/2024 18015KT P6SM -RA BKN015 OVC050
      TEMPO 2000/2003 BKN025 OVC060
     FM200300 20015KT P6SM VCSH BKN025 OVC090
     FM200800 22008KT P6SM -RASN BKN008 OVC015
     FM201300 18008KT P6SM SCT008 OVC015
     FM201800 21010KT P6SM SCT025 BKN050 OVC080=



000
FTUS45 KPIH 192300
TAFIDA
TAF
KIDA 192330Z 2000/2024 18007KT P6SM -RA SCT025 OVC040
      TEMPO 2000/2002 BKN025 OVC040
     FM200200 21015KT 4SM -RASN BR SCT008 OVC025
     FM200900 23010KT 4SM BR SCT008 OVC025
     FM201300 21007KT 1SM BR OVC008
     FM201800 20007KT 2SM BR OVC015=



000
FTUS45 KPIH 192300
TAFPIH
TAF
KPIH 192330Z 2000/2024 18015G25KT P6SM -RA BKN025 OVC050
      TEMPO 2000/2003 BKN035 OVC060
     FM200300 20015KT P6SM VCSH BKN025 OVC090
     FM200800 22008KT P6SM -RASN BKN008 OVC015
     FM201300 18008KT P6SM SCT008 OVC015
     FM201800 21010KT P6SM SCT025 BKN050 OVC080=



000
FTUS45 KPIH 192300
TAFSUN
TAF
KSUN 192330Z 2000/2024 14007KT 1SM -SN OVC008
     FM200300 VRB04KT P6SM OVC008
     FM200600 32008KT P6SM VCSH SCT008 BKN015
     FM201200 VRB03KT P6SM SCT008 BKN025
     FM201700 15007KT P6SM -RA OVC008
      AMD LTD TO CLD VIS AND WIND 2006/2014=



000
FTUS45 KPIH 192300
TAFBYI
TAF
KBYI 192330Z 2000/2024 27008KT P6SM -RA SCT008 BKN025
     FM200200 25007KT P6SM VCSH SCT008 BKN025 OVC070
     FM200500 19007KT P6SM SCT015 BKN070
     FM200800 22007KT P6SM BKN015 BKN070
     FM201500 16007KT P6SM SCT015 BKN060=



000
FTUS45 KPIH 192000 AAC
TAFSUN
TAF AMD
KSUN 192037Z 1921/2018 16005KT 2SM -RASN BR BKN007 OVC015
     FM200200 VRB04KT 4SM -SN BR OVC008
     FM200700 32008KT P6SM VCSH SCT008 BKN060=



000
FTUS45 KPIH 191900 AAB
TAFIDA
TAF AMD
KIDA 191907Z 1919/2018 18007KT P6SM VCSH SCT015 OVC050
     FM200100 20010KT 6SM -RA BR SCT008 BKN025 OVC040
     FM200300 20010KT 3SM -RASN BR BKN007 OVC015
     FM200900 22008KT 4SM BR OVC008=



000
FTUS45 KPIH 191900 AAB
TAFSUN
TAF AMD
KSUN 191907Z 1919/2018 VRB04KT 3SM -SN SCT008 SCT018 OVC030
      TEMPO 1919/1921 2SM -SN BKN018
     FM192100 16005KT 2SM -RASN BR SCT007 BKN012
     FM200200 VRB04KT 4SM -SN BR OVC008
     FM200700 32008KT P6SM VCSH SCT008 BKN060=



000
FTUS45 KPIH 191800 AAA
TAFIDA
TAF AMD
KIDA 191842Z 1919/2018 18007KT P6SM VCSH BKN015 OVC050
     FM200100 20010KT 6SM -RA BR SCT008 BKN025 OVC040
     FM200300 20010KT 3SM -RASN BR BKN007 OVC015
     FM200900 22008KT 4SM BR OVC008=



000
FTUS45 KPIH 191800 AAA
TAFSUN
TAF AMD
KSUN 191802Z 1918/2018 VRB04KT 6SM -SN SCT008 SCT018 OVC030
      TEMPO 1918/1921 1SM -SN BKN018
     FM192100 16005KT 2SM -RASN BR SCT007 BKN012
     FM200200 VRB04KT 4SM -SN BR OVC008
     FM200700 32008KT P6SM VCSH SCT008 BKN060=



000
FTUS45 KPIH 191700
TAFBYI
TAF
KBYI 191720Z 1918/2018 21012G18KT P6SM VCSH SCT030 BKN090
     FM192100 22011KT P6SM -RA SCT010 BKN020
     FM200200 25010KT P6SM VCSH SCT008 BKN025 OVC070
     FM200800 25008KT P6SM SCT008 BKN015
     FM201400 22006KT P6SM SCT015 OVC035=



000
FTUS45 KPIH 191700
TAFIDA
TAF
KIDA 191720Z 1918/2018 18007KT 3SM BR VCSH BKN020 OVC050
     FM200100 20010KT 6SM -RA BR SCT008 BKN025 OVC040
     FM200300 20010KT 3SM -RASN BR BKN007 OVC015
     FM200900 22008KT 4SM BR OVC008=



000
FTUS45 KPIH 191700
TAFSUN
TAF
KSUN 191720Z 1918/2018 VRB04KT 1SM -SN SCT008 BKN018 OVC030
     FM192100 16005KT 2SM -RASN BR SCT007 BKN012
     FM200200 VRB04KT 4SM -SN BR OVC008
     FM200700 32008KT P6SM VCSH SCT008 BKN060=



000
FTUS45 KPIH 191700
TAFPIH
TAF
KPIH 191720Z 1918/2018 18012G20KT P6SM FEW050 BKN070
     FM192300 18011KT P6SM -RA BKN020 OVC050
     FM200800 22011KT 5SM -RASN BKN012 BKN030
     FM201200 22008KT P6SM VCSH SCT010 BKN025
     FM201700 21010KT P6SM SCT025 BKN050=



000
FTUS45 KPIH 191600 AAA
TAFPIH
TAF AMD
KPIH 191614Z 1916/2012 18013G21KT P6SM FEW050 BKN090
     FM192000 18012G20KT P6SM VCSH SCT010 BKN050
     FM200100 20012KT P6SM -RA SCT010 BKN030
     FM200800 22008KT P6SM VCSH SCT010 BKN020=



000
FTUS45 KPIH 191600 AAA
TAFBYI
TAF AMD
KBYI 191614Z 1916/2012 20013G21KT P6SM BKN100
     FM191700 22012G18KT P6SM VCSH SCT030 BKN060
     FM192200 22010KT P6SM -RA SCT015 OVC060
     FM200200 25010KT P6SM VCSH SCT008 BKN025 OVC070
     FM200800 25008KT P6SM SCT012 BKN015=



000
FTUS45 KPIH 191500 AAD
TAFSUN
TAF AMD
KSUN 191559Z 1916/2012 VRB04KT 6SM -SN SCT015 OVC035
      TEMPO 1919/1923 -RA SCT015 OVC030
     FM200100 VRB04KT 4SM -SN BR OVC008
     FM200400 32008KT P6SM VCSH SCT008 BKN060=



000
FTUS45 KPIH 191500 AAA
TAFIDA
TAF AMD
KIDA 191555Z 1916/2012 VRB03KT 3/4SM -SN BR SCT010 OVC020
     FM191800 22009KT P6SM VCSH SCT020 OVC050
     FM192100 18010KT P6SM VCSH SCT015 BKN050 OVC080
     FM200000 18010KT P6SM -RA SCT008 BKN025 OVC040
     FM200300 20010KT 4SM -RASN BR BKN008 OVC015
     FM200900 22008KT 4SM BR OVC008=



    US Dept of Commerce
    National Oceanic and Atmospheric Administration
    National Weather Service
    1325 East West Highway
    Silver Spring, MD 20910
    Page Author: NWS Internet Services Team
Disclaimer
Information Quality
Credits
Glossary
Privacy Policy
Freedom of Information Act (FOIA)
About Us
Career Opportunities